Hauptseite
METAR-TAF:

METAR-TAF

Flughäfen :

Flughafen Linz

Linz, Österreich

Breite: 48-14N, Länge: 014-11E, Höhe: 298 m

Beobachtung

Neuester Wetterbericht von vor 38 Minuten, um 01:50 UTC
Wind 3 kt aus West
Temperatur 2°C
Luftfeuchtigkeit 93%
Luftdruck 1022 hPa
Sichtweite 10 km oder mehr

METAR: LOWL 080150Z AUTO 26003KT 9999 NCD 02/01 Q1022

Zeit: 04:28 (02:28 UTC)

Prognose

Neuester Wetterbericht von vor 3 Stunden und 13 Minuten, um 23:15 UTC
Gültige Prognose vom 08 um 00 UTC bis 08 um 24 UTC
Wind 7 kt aus West
Sichtweite 10 km oder mehr
Leicht bewölkt in der Höhe von 4000 ft
Übergehend zu
vom 08 um 00 UTC bis 08 um 02 UTC
Wind 4 kt aus West/Nordwest

TAF: LOWL 072315Z 0800/0824 27007KT 9999 FEW040 TX16/0815Z TN02/0803Z BECMG 0800/0802 29004KT

Wetterbeobachtungen und Prognosen von mehr als 4000 Flughäfen (METAR und TAF Bericht).

Die verfügbaren Stationen werden durch gelbe und rote Markierungen auf der Karte dargestellt.

Führen Sie die Maus auf sie, um den Namen der Station zu sehen.

Darauf klicken, um die Beobachtung von Wetterbeobachtungen und Prognosen zu sehen.

Um die Karte zu ändern : klicken Sie auf den grünen Tasten mit einem schwarzen Kreuz Zum Vergrößern, auf den grünen Button mit einem Gedankenstrich zu verkleinern, oder auf die grünen Pfeile für benachbarte Karten.


METAR-TAF: